sensor_id;sensor_type;location;lat;lon;timestamp;P1;durP1;ratioP1;P2;durP2;ratioP2
19830;SDS011;10076;52.008;4.708;2023-08-06T00:01:22;5.35;;;3.05;;
19830;SDS011;10076;52.008;4.708;2023-08-06T00:03:47;6.28;;;2.80;;
19830;SDS011;10076;52.008;4.708;2023-08-06T00:06:13;5.47;;;3.10;;
19830;SDS011;10076;52.008;4.708;2023-08-06T00:08:38;6.75;;;3.45;;
19830;SDS011;10076;52.008;4.708;2023-08-06T00:11:04;6.57;;;3.22;;
19830;SDS011;10076;52.008;4.708;2023-08-06T00:13:29;5.22;;;3.35;;
19830;SDS011;10076;52.008;4.708;2023-08-06T00:15:54;5.63;;;3.03;;
19830;SDS011;10076;52.008;4.708;2023-08-06T00:18:19;6.25;;;3.17;;
19830;SDS011;10076;52.008;4.708;2023-08-06T00:20:45;6.18;;;3.47;;
19830;SDS011;10076;52.008;4.708;2023-08-06T00:23:10;5.93;;;3.45;;
19830;SDS011;10076;52.008;4.708;2023-08-06T00:25:36;6.20;;;3.13;;
19830;SDS011;10076;52.008;4.708;2023-08-06T00:28:01;6.88;;;3.60;;
19830;SDS011;10076;52.008;4.708;2023-08-06T00:30:27;5.20;;;3.35;;
19830;SDS011;10076;52.008;4.708;2023-08-06T00:32:52;7.43;;;3.13;;
19830;SDS011;10076;52.008;4.708;2023-08-06T00:35:17;5.28;;;3.58;;
19830;SDS011;10076;52.008;4.708;2023-08-06T00:37:43;4.88;;;3.10;;
19830;SDS011;10076;52.008;4.708;2023-08-06T00:40:08;5.70;;;3.45;;
19830;SDS011;10076;52.008;4.708;2023-08-06T00:42:33;5.53;;;3.55;;
19830;SDS011;10076;52.008;4.708;2023-08-06T00:44:59;6.05;;;3.40;;
19830;SDS011;10076;52.008;4.708;2023-08-06T00:47:25;3.92;;;2.65;;
19830;SDS011;10076;52.008;4.708;2023-08-06T00:49:51;4.22;;;2.95;;
19830;SDS011;10076;52.008;4.708;2023-08-06T00:52:16;4.50;;;3.10;;
19830;SDS011;10076;52.008;4.708;2023-08-06T00:54:42;5.55;;;3.53;;
19830;SDS011;10076;52.008;4.708;2023-08-06T00:57:07;6.78;;;3.40;;
19830;SDS011;10076;52.008;4.708;2023-08-06T00:59:34;5.38;;;3.38;;
19830;SDS011;10076;52.008;4.708;2023-08-06T01:02:00;6.22;;;3.67;;
19830;SDS011;10076;52.008;4.708;2023-08-06T01:04:25;5.53;;;3.05;;
19830;SDS011;10076;52.008;4.708;2023-08-06T01:12:40;8.07;;;3.72;;
19830;SDS011;10076;52.008;4.708;2023-08-06T01:15:11;6.38;;;3.55;;
19830;SDS011;10076;52.008;4.708;2023-08-06T01:17:37;6.18;;;3.33;;
19830;SDS011;10076;52.008;4.708;2023-08-06T01:20:04;7.18;;;3.97;;
19830;SDS011;10076;52.008;4.708;2023-08-06T01:22:29;4.90;;;3.15;;
19830;SDS011;10076;52.008;4.708;2023-08-06T01:24:55;6.93;;;3.67;;
19830;SDS011;10076;52.008;4.708;2023-08-06T01:30:17;5.10;;;3.42;;
19830;SDS011;10076;52.008;4.708;2023-08-06T01:32:43;5.13;;;3.17;;
19830;SDS011;10076;52.008;4.708;2023-08-06T01:35:11;6.15;;;3.88;;
19830;SDS011;10076;52.008;4.708;2023-08-06T01:37:38;7.78;;;3.60;;
19830;SDS011;10076;52.008;4.708;2023-08-06T01:40:06;6.05;;;3.38;;
19830;SDS011;10076;52.008;4.708;2023-08-06T01:42:34;5.15;;;3.10;;
19830;SDS011;10076;52.008;4.708;2023-08-06T01:45:00;4.88;;;3.15;;
19830;SDS011;10076;52.008;4.708;2023-08-06T01:47:25;5.78;;;3.25;;
19830;SDS011;10076;52.008;4.708;2023-08-06T01:49:50;6.35;;;3.85;;
19830;SDS011;10076;52.008;4.708;2023-08-06T01:52:16;5.55;;;3.63;;
19830;SDS011;10076;52.008;4.708;2023-08-06T01:54:41;6.18;;;3.42;;
19830;SDS011;10076;52.008;4.708;2023-08-06T01:57:06;5.07;;;3.25;;
19830;SDS011;10076;52.008;4.708;2023-08-06T01:59:32;6.25;;;3.47;;
19830;SDS011;10076;52.008;4.708;2023-08-06T02:01:57;4.40;;;3.38;;
19830;SDS011;10076;52.008;4.708;2023-08-06T02:04:22;8.18;;;3.67;;
19830;SDS011;10076;52.008;4.708;2023-08-06T02:06:47;5.63;;;3.50;;
19830;SDS011;10076;52.008;4.708;2023-08-06T02:09:13;4.47;;;3.20;;
19830;SDS011;10076;52.008;4.708;2023-08-06T02:11:38;8.32;;;3.58;;
19830;SDS011;10076;52.008;4.708;2023-08-06T02:14:03;5.78;;;3.63;;
19830;SDS011;10076;52.008;4.708;2023-08-06T02:16:29;6.28;;;3.40;;
19830;SDS011;10076;52.008;4.708;2023-08-06T02:18:54;6.05;;;3.65;;
19830;SDS011;10076;52.008;4.708;2023-08-06T02:21:19;4.85;;;3.28;;
19830;SDS011;10076;52.008;4.708;2023-08-06T02:23:45;6.53;;;3.60;;
19830;SDS011;10076;52.008;4.708;2023-08-06T02:26:10;7.55;;;3.55;;
19830;SDS011;10076;52.008;4.708;2023-08-06T02:28:35;4.78;;;3.38;;
19830;SDS011;10076;52.008;4.708;2023-08-06T02:31:01;5.38;;;3.70;;
19830;SDS011;10076;52.008;4.708;2023-08-06T02:33:26;7.25;;;3.25;;
19830;SDS011;10076;52.008;4.708;2023-08-06T02:35:58;6.93;;;3.88;;
19830;SDS011;10076;52.008;4.708;2023-08-06T02:38:24;7.38;;;4.05;;
19830;SDS011;10076;52.008;4.708;2023-08-06T02:40:49;6.57;;;3.65;;
19830;SDS011;10076;52.008;4.708;2023-08-06T02:43:14;5.68;;;3.70;;
19830;SDS011;10076;52.008;4.708;2023-08-06T02:45:40;6.72;;;3.95;;
19830;SDS011;10076;52.008;4.708;2023-08-06T02:48:05;10.13;;;3.58;;
19830;SDS011;10076;52.008;4.708;2023-08-06T02:50:31;5.72;;;3.58;;
19830;SDS011;10076;52.008;4.708;2023-08-06T02:52:56;6.78;;;3.83;;
19830;SDS011;10076;52.008;4.708;2023-08-06T02:55:21;4.97;;;3.28;;
19830;SDS011;10076;52.008;4.708;2023-08-06T02:57:47;5.85;;;3.80;;
19830;SDS011;10076;52.008;4.708;2023-08-06T03:00:12;4.78;;;3.65;;
19830;SDS011;10076;52.008;4.708;2023-08-06T03:02:37;9.23;;;3.33;;
19830;SDS011;10076;52.008;4.708;2023-08-06T03:05:03;5.32;;;3.30;;
19830;SDS011;10076;52.008;4.708;2023-08-06T03:07:29;5.47;;;3.53;;
19830;SDS011;10076;52.008;4.708;2023-08-06T03:09:54;5.80;;;3.10;;
19830;SDS011;10076;52.008;4.708;2023-08-06T03:12:20;5.63;;;3.30;;
19830;SDS011;10076;52.008;4.708;2023-08-06T03:14:45;5.13;;;3.42;;
19830;SDS011;10076;52.008;4.708;2023-08-06T03:17:10;6.38;;;3.60;;
19830;SDS011;10076;52.008;4.708;2023-08-06T03:19:36;6.30;;;3.83;;
19830;SDS011;10076;52.008;4.708;2023-08-06T03:22:01;6.82;;;3.88;;
19830;SDS011;10076;52.008;4.708;2023-08-06T03:24:26;8.55;;;3.72;;
19830;SDS011;10076;52.008;4.708;2023-08-06T03:26:52;5.35;;;3.40;;
19830;SDS011;10076;52.008;4.708;2023-08-06T03:29:17;5.70;;;3.67;;
19830;SDS011;10076;52.008;4.708;2023-08-06T03:31:42;6.65;;;3.45;;
19830;SDS011;10076;52.008;4.708;2023-08-06T03:34:08;5.32;;;3.40;;
19830;SDS011;10076;52.008;4.708;2023-08-06T03:36:33;5.88;;;3.60;;
19830;SDS011;10076;52.008;4.708;2023-08-06T03:38:58;5.70;;;3.88;;
19830;SDS011;10076;52.008;4.708;2023-08-06T03:41:24;8.10;;;3.95;;
19830;SDS011;10076;52.008;4.708;2023-08-06T03:43:49;6.20;;;3.45;;
19830;SDS011;10076;52.008;4.708;2023-08-06T03:46:14;5.65;;;4.30;;
19830;SDS011;10076;52.008;4.708;2023-08-06T03:48:40;8.13;;;4.38;;
19830;SDS011;10076;52.008;4.708;2023-08-06T03:51:05;7.50;;;4.18;;
19830;SDS011;10076;52.008;4.708;2023-08-06T03:53:30;7.90;;;4.07;;
19830;SDS011;10076;52.008;4.708;2023-08-06T03:55:55;8.00;;;4.85;;
19830;SDS011;10076;52.008;4.708;2023-08-06T03:58:24;8.35;;;4.45;;
19830;SDS011;10076;52.008;4.708;2023-08-06T04:00:57;7.15;;;4.30;;
19830;SDS011;10076;52.008;4.708;2023-08-06T04:03:23;8.52;;;4.25;;
19830;SDS011;10076;52.008;4.708;2023-08-06T04:05:49;7.15;;;4.25;;
19830;SDS011;10076;52.008;4.708;2023-08-06T04:08:14;7.82;;;4.35;;
19830;SDS011;10076;52.008;4.708;2023-08-06T04:10:39;6.57;;;3.80;;
19830;SDS011;10076;52.008;4.708;2023-08-06T04:13:04;4.45;;;2.95;;
19830;SDS011;10076;52.008;4.708;2023-08-06T04:15:30;4.15;;;2.30;;
19830;SDS011;10076;52.008;4.708;2023-08-06T04:17:58;4.15;;;2.40;;
19830;SDS011;10076;52.008;4.708;2023-08-06T04:20:23;4.82;;;2.20;;
19830;SDS011;10076;52.008;4.708;2023-08-06T04:22:48;3.78;;;2.13;;
19830;SDS011;10076;52.008;4.708;2023-08-06T04:25:14;4.63;;;2.10;;
19830;SDS011;10076;52.008;4.708;2023-08-06T04:27:39;4.28;;;2.20;;
19830;SDS011;10076;52.008;4.708;2023-08-06T04:30:06;4.10;;;2.30;;
19830;SDS011;10076;52.008;4.708;2023-08-06T04:32:32;4.38;;;2.47;;
19830;SDS011;10076;52.008;4.708;2023-08-06T04:34:57;3.42;;;2.45;;
19830;SDS011;10076;52.008;4.708;2023-08-06T04:37:23;5.18;;;2.45;;
19830;SDS011;10076;52.008;4.708;2023-08-06T04:39:48;4.25;;;2.78;;
19830;SDS011;10076;52.008;4.708;2023-08-06T04:42:14;5.20;;;2.35;;
19830;SDS011;10076;52.008;4.708;2023-08-06T04:44:39;4.25;;;2.35;;
19830;SDS011;10076;52.008;4.708;2023-08-06T04:47:04;3.70;;;2.22;;
19830;SDS011;10076;52.008;4.708;2023-08-06T04:49:30;5.28;;;2.50;;
19830;SDS011;10076;52.008;4.708;2023-08-06T04:51:55;2.17;;;1.98;;
19830;SDS011;10076;52.008;4.708;2023-08-06T04:54:20;5.07;;;1.92;;
19830;SDS011;10076;52.008;4.708;2023-08-06T04:56:46;2.47;;;1.77;;
19830;SDS011;10076;52.008;4.708;2023-08-06T04:59:11;2.78;;;2.00;;
19830;SDS011;10076;52.008;4.708;2023-08-06T05:01:36;3.88;;;1.88;;
19830;SDS011;10076;52.008;4.708;2023-08-06T05:04:02;2.58;;;1.52;;
19830;SDS011;10076;52.008;4.708;2023-08-06T05:06:27;3.25;;;1.80;;
19830;SDS011;10076;52.008;4.708;2023-08-06T05:08:52;6.35;;;2.38;;
19830;SDS011;10076;52.008;4.708;2023-08-06T05:11:18;2.08;;;1.40;;
19830;SDS011;10076;52.008;4.708;2023-08-06T05:13:43;4.93;;;1.63;;
19830;SDS011;10076;52.008;4.708;2023-08-06T05:16:08;2.30;;;1.58;;
19830;SDS011;10076;52.008;4.708;2023-08-06T05:18:34;3.05;;;1.70;;
19830;SDS011;10076;52.008;4.708;2023-08-06T05:20:59;3.28;;;1.67;;
19830;SDS011;10076;52.008;4.708;2023-08-06T05:23:25;2.38;;;1.88;;
19830;SDS011;10076;52.008;4.708;2023-08-06T05:25:50;2.05;;;1.67;;
19830;SDS011;10076;52.008;4.708;2023-08-06T05:28:15;2.85;;;1.63;;
19830;SDS011;10076;52.008;4.708;2023-08-06T05:30:41;2.17;;;1.80;;
19830;SDS011;10076;52.008;4.708;2023-08-06T05:33:06;1.80;;;1.52;;
19830;SDS011;10076;52.008;4.708;2023-08-06T05:35:32;4.38;;;1.98;;
19830;SDS011;10076;52.008;4.708;2023-08-06T05:37:57;4.20;;;1.70;;
19830;SDS011;10076;52.008;4.708;2023-08-06T05:40:22;2.40;;;2.17;;
19830;SDS011;10076;52.008;4.708;2023-08-06T05:42:50;6.32;;;1.88;;
19830;SDS011;10076;52.008;4.708;2023-08-06T05:45:15;2.67;;;1.58;;
19830;SDS011;10076;52.008;4.708;2023-08-06T05:47:41;4.75;;;1.80;;
19830;SDS011;10076;52.008;4.708;2023-08-06T05:50:06;2.97;;;1.77;;
19830;SDS011;10076;52.008;4.708;2023-08-06T05:52:32;3.45;;;2.20;;
19830;SDS011;10076;52.008;4.708;2023-08-06T05:54:57;2.70;;;1.80;;
19830;SDS011;10076;52.008;4.708;2023-08-06T05:57:23;3.80;;;1.92;;
19830;SDS011;10076;52.008;4.708;2023-08-06T05:59:48;3.58;;;2.33;;
19830;SDS011;10076;52.008;4.708;2023-08-06T06:02:13;3.10;;;2.00;;
19830;SDS011;10076;52.008;4.708;2023-08-06T06:04:40;4.68;;;2.38;;
19830;SDS011;10076;52.008;4.708;2023-08-06T06:07:05;6.43;;;2.00;;
19830;SDS011;10076;52.008;4.708;2023-08-06T06:09:31;3.03;;;1.80;;
19830;SDS011;10076;52.008;4.708;2023-08-06T06:11:56;4.45;;;2.22;;
19830;SDS011;10076;52.008;4.708;2023-08-06T06:14:21;2.55;;;2.17;;
19830;SDS011;10076;52.008;4.708;2023-08-06T06:16:47;3.75;;;2.17;;
19830;SDS011;10076;52.008;4.708;2023-08-06T06:19:12;3.72;;;2.00;;
19830;SDS011;10076;52.008;4.708;2023-08-06T06:21:37;2.13;;;1.92;;
19830;SDS011;10076;52.008;4.708;2023-08-06T06:24:04;2.78;;;2.30;;
19830;SDS011;10076;52.008;4.708;2023-08-06T06:26:30;6.70;;;2.28;;
19830;SDS011;10076;52.008;4.708;2023-08-06T06:28:55;2.80;;;2.00;;
19830;SDS011;10076;52.008;4.708;2023-08-06T06:31:21;4.10;;;2.00;;
19830;SDS011;10076;52.008;4.708;2023-08-06T06:33:46;6.10;;;2.50;;
19830;SDS011;10076;52.008;4.708;2023-08-06T06:36:11;3.97;;;2.25;;
19830;SDS011;10076;52.008;4.708;2023-08-06T06:38:37;4.20;;;1.95;;
19830;SDS011;10076;52.008;4.708;2023-08-06T06:41:03;3.75;;;2.60;;
19830;SDS011;10076;52.008;4.708;2023-08-06T06:43:29;3.47;;;2.40;;
19830;SDS011;10076;52.008;4.708;2023-08-06T06:46:00;3.10;;;2.20;;
19830;SDS011;10076;52.008;4.708;2023-08-06T06:48:31;2.42;;;2.08;;
19830;SDS011;10076;52.008;4.708;2023-08-06T06:50:57;2.50;;;1.73;;
19830;SDS011;10076;52.008;4.708;2023-08-06T06:53:23;4.35;;;2.25;;
19830;SDS011;10076;52.008;4.708;2023-08-06T06:55:55;3.45;;;1.50;;
19830;SDS011;10076;52.008;4.708;2023-08-06T06:58:21;2.42;;;1.55;;
19830;SDS011;10076;52.008;4.708;2023-08-06T07:00:47;6.50;;;2.03;;
19830;SDS011;10076;52.008;4.708;2023-08-06T07:03:13;4.72;;;1.75;;
19830;SDS011;10076;52.008;4.708;2023-08-06T07:05:39;4.13;;;1.42;;
19830;SDS011;10076;52.008;4.708;2023-08-06T07:08:05;5.10;;;1.60;;
19830;SDS011;10076;52.008;4.708;2023-08-06T07:10:30;1.70;;;1.30;;
19830;SDS011;10076;52.008;4.708;2023-08-06T07:12:55;3.58;;;1.30;;
19830;SDS011;10076;52.008;4.708;2023-08-06T07:15:21;2.17;;;1.33;;
19830;SDS011;10076;52.008;4.708;2023-08-06T07:17:46;3.03;;;1.15;;
19830;SDS011;10076;52.008;4.708;2023-08-06T07:20:11;3.83;;;1.60;;
19830;SDS011;10076;52.008;4.708;2023-08-06T07:22:37;1.40;;;1.27;;
19830;SDS011;10076;52.008;4.708;2023-08-06T07:25:02;1.98;;;1.45;;
19830;SDS011;10076;52.008;4.708;2023-08-06T07:27:27;1.77;;;1.17;;
19830;SDS011;10076;52.008;4.708;2023-08-06T07:29:53;2.53;;;0.90;;
19830;SDS011;10076;52.008;4.708;2023-08-06T07:32:18;1.52;;;1.40;;
19830;SDS011;10076;52.008;4.708;2023-08-06T07:34:44;1.45;;;0.90;;
19830;SDS011;10076;52.008;4.708;2023-08-06T07:37:09;2.15;;;1.00;;
19830;SDS011;10076;52.008;4.708;2023-08-06T07:39:34;1.20;;;1.10;;
19830;SDS011;10076;52.008;4.708;2023-08-06T07:42:00;2.40;;;1.00;;
19830;SDS011;10076;52.008;4.708;2023-08-06T07:44:27;3.53;;;0.90;;
19830;SDS011;10076;52.008;4.708;2023-08-06T07:46:52;2.05;;;1.10;;
19830;SDS011;10076;52.008;4.708;2023-08-06T07:49:18;3.33;;;1.25;;
19830;SDS011;10076;52.008;4.708;2023-08-06T07:51:43;2.17;;;1.02;;
19830;SDS011;10076;52.008;4.708;2023-08-06T07:54:08;2.17;;;1.05;;
19830;SDS011;10076;52.008;4.708;2023-08-06T07:56:34;1.48;;;0.98;;
19830;SDS011;10076;52.008;4.708;2023-08-06T07:59:00;0.85;;;0.80;;
19830;SDS011;10076;52.008;4.708;2023-08-06T08:01:26;1.33;;;1.15;;
19830;SDS011;10076;52.008;4.708;2023-08-06T08:03:51;2.83;;;1.67;;
19830;SDS011;10076;52.008;4.708;2023-08-06T08:06:16;4.38;;;1.23;;
19830;SDS011;10076;52.008;4.708;2023-08-06T08:08:42;1.73;;;1.02;;
19830;SDS011;10076;52.008;4.708;2023-08-06T08:11:07;1.85;;;0.90;;
19830;SDS011;10076;52.008;4.708;2023-08-06T08:13:33;2.28;;;1.25;;
19830;SDS011;10076;52.008;4.708;2023-08-06T08:15:59;3.45;;;1.20;;
19830;SDS011;10076;52.008;4.708;2023-08-06T08:18:25;1.50;;;1.13;;
19830;SDS011;10076;52.008;4.708;2023-08-06T08:20:50;1.52;;;1.00;;
19830;SDS011;10076;52.008;4.708;2023-08-06T08:23:16;2.70;;;1.00;;
19830;SDS011;10076;52.008;4.708;2023-08-06T08:25:41;2.85;;;1.27;;
19830;SDS011;10076;52.008;4.708;2023-08-06T08:28:07;2.63;;;1.20;;
19830;SDS011;10076;52.008;4.708;2023-08-06T08:30:32;3.75;;;1.00;;
19830;SDS011;10076;52.008;4.708;2023-08-06T08:32:57;2.72;;;1.10;;
19830;SDS011;10076;52.008;4.708;2023-08-06T08:35:23;1.25;;;0.90;;
19830;SDS011;10076;52.008;4.708;2023-08-06T08:37:48;4.43;;;1.15;;
19830;SDS011;10076;52.008;4.708;2023-08-06T08:40:14;1.25;;;1.02;;
19830;SDS011;10076;52.008;4.708;2023-08-06T08:42:40;2.75;;;0.80;;
19830;SDS011;10076;52.008;4.708;2023-08-06T08:45:06;1.63;;;1.15;;
19830;SDS011;10076;52.008;4.708;2023-08-06T08:47:39;2.00;;;0.80;;
19830;SDS011;10076;52.008;4.708;2023-08-06T08:50:07;1.83;;;1.08;;
19830;SDS011;10076;52.008;4.708;2023-08-06T08:52:33;3.45;;;1.08;;
19830;SDS011;10076;52.008;4.708;2023-08-06T08:54:59;1.63;;;1.17;;
19830;SDS011;10076;52.008;4.708;2023-08-06T08:57:26;2.72;;;1.13;;
19830;SDS011;10076;52.008;4.708;2023-08-06T08:59:52;2.10;;;0.82;;
19830;SDS011;10076;52.008;4.708;2023-08-06T09:02:17;3.65;;;1.17;;
19830;SDS011;10076;52.008;4.708;2023-08-06T09:04:46;1.60;;;1.10;;
19830;SDS011;10076;52.008;4.708;2023-08-06T09:07:13;5.75;;;1.67;;
19830;SDS011;10076;52.008;4.708;2023-08-06T09:09:43;2.20;;;1.27;;
19830;SDS011;10076;52.008;4.708;2023-08-06T09:12:12;2.63;;;1.38;;
19830;SDS011;10076;52.008;4.708;2023-08-06T09:14:40;1.95;;;1.10;;
19830;SDS011;10076;52.008;4.708;2023-08-06T09:17:05;2.90;;;1.25;;
19830;SDS011;10076;52.008;4.708;2023-08-06T09:19:31;3.40;;;1.27;;
19830;SDS011;10076;52.008;4.708;2023-08-06T09:21:56;1.77;;;1.30;;
19830;SDS011;10076;52.008;4.708;2023-08-06T09:24:22;4.32;;;1.38;;
19830;SDS011;10076;52.008;4.708;2023-08-06T09:26:48;3.30;;;1.30;;
19830;SDS011;10076;52.008;4.708;2023-08-06T09:29:13;1.55;;;0.98;;
19830;SDS011;10076;52.008;4.708;2023-08-06T09:31:46;2.15;;;1.20;;
19830;SDS011;10076;52.008;4.708;2023-08-06T09:34:16;2.88;;;1.27;;
19830;SDS011;10076;52.008;4.708;2023-08-06T09:36:46;2.05;;;0.95;;
19830;SDS011;10076;52.008;4.708;2023-08-06T09:39:12;2.30;;;1.17;;
19830;SDS011;10076;52.008;4.708;2023-08-06T09:41:42;8.18;;;1.20;;
19830;SDS011;10076;52.008;4.708;2023-08-06T09:44:18;1.70;;;1.10;;
19830;SDS011;10076;52.008;4.708;2023-08-06T09:49:20;1.90;;;1.10;;
19830;SDS011;10076;52.008;4.708;2023-08-06T09:52:09;1.92;;;1.00;;
19830;SDS011;10076;52.008;4.708;2023-08-06T09:54:36;2.90;;;1.70;;
19830;SDS011;10076;52.008;4.708;2023-08-06T09:57:02;2.67;;;1.10;;
19830;SDS011;10076;52.008;4.708;2023-08-06T09:59:28;2.67;;;1.27;;
19830;SDS011;10076;52.008;4.708;2023-08-06T10:01:53;2.35;;;1.05;;
19830;SDS011;10076;52.008;4.708;2023-08-06T10:04:20;2.92;;;0.90;;
19830;SDS011;10076;52.008;4.708;2023-08-06T10:06:48;2.75;;;0.85;;
19830;SDS011;10076;52.008;4.708;2023-08-06T10:09:14;1.98;;;1.10;;
19830;SDS011;10076;52.008;4.708;2023-08-06T10:11:40;2.13;;;1.20;;
19830;SDS011;10076;52.008;4.708;2023-08-06T10:14:15;1.60;;;0.90;;
19830;SDS011;10076;52.008;4.708;2023-08-06T10:16:44;1.67;;;1.20;;
19830;SDS011;10076;52.008;4.708;2023-08-06T10:19:12;1.00;;;0.85;;
19830;SDS011;10076;52.008;4.708;2023-08-06T10:21:38;3.22;;;1.00;;
19830;SDS011;10076;52.008;4.708;2023-08-06T10:24:03;2.15;;;1.17;;
19830;SDS011;10076;52.008;4.708;2023-08-06T10:26:34;1.15;;;0.90;;
19830;SDS011;10076;52.008;4.708;2023-08-06T10:29:00;1.55;;;0.98;;
19830;SDS011;10076;52.008;4.708;2023-08-06T10:37:19;1.13;;;0.80;;
19830;SDS011;10076;52.008;4.708;2023-08-06T10:39:49;2.40;;;1.20;;
19830;SDS011;10076;52.008;4.708;2023-08-06T10:42:19;2.50;;;1.10;;
19830;SDS011;10076;52.008;4.708;2023-08-06T10:47:40;1.38;;;0.80;;
19830;SDS011;10076;52.008;4.708;2023-08-06T10:50:06;2.92;;;1.00;;
19830;SDS011;10076;52.008;4.708;2023-08-06T10:52:33;1.20;;;0.80;;
19830;SDS011;10076;52.008;4.708;2023-08-06T10:54:59;0.85;;;0.80;;
19830;SDS011;10076;52.008;4.708;2023-08-06T10:57:25;1.15;;;0.90;;
19830;SDS011;10076;52.008;4.708;2023-08-06T10:59:50;1.02;;;0.63;;
19830;SDS011;10076;52.008;4.708;2023-08-06T11:02:16;1.27;;;0.60;;
19830;SDS011;10076;52.008;4.708;2023-08-06T11:04:41;4.32;;;1.00;;
19830;SDS011;10076;52.008;4.708;2023-08-06T11:07:07;1.40;;;0.80;;
19830;SDS011;10076;52.008;4.708;2023-08-06T11:09:32;2.60;;;1.13;;
19830;SDS011;10076;52.008;4.708;2023-08-06T11:11:57;1.33;;;0.82;;
19830;SDS011;10076;52.008;4.708;2023-08-06T11:14:23;1.77;;;1.02;;
19830;SDS011;10076;52.008;4.708;2023-08-06T11:16:48;1.20;;;0.80;;
19830;SDS011;10076;52.008;4.708;2023-08-06T11:19:15;2.17;;;0.77;;
19830;SDS011;10076;52.008;4.708;2023-08-06T11:21:41;2.85;;;0.93;;
19830;SDS011;10076;52.008;4.708;2023-08-06T11:24:09;1.02;;;0.90;;
19830;SDS011;10076;52.008;4.708;2023-08-06T11:26:36;1.48;;;0.80;;
19830;SDS011;10076;52.008;4.708;2023-08-06T11:29:02;1.00;;;0.80;;
19830;SDS011;10076;52.008;4.708;2023-08-06T11:31:28;2.83;;;0.95;;
19830;SDS011;10076;52.008;4.708;2023-08-06T11:33:55;1.30;;;0.90;;
19830;SDS011;10076;52.008;4.708;2023-08-06T11:36:28;2.17;;;1.25;;
19830;SDS011;10076;52.008;4.708;2023-08-06T11:39:00;1.50;;;0.95;;
19830;SDS011;10076;52.008;4.708;2023-08-06T11:41:28;1.38;;;0.98;;
19830;SDS011;10076;52.008;4.708;2023-08-06T11:43:54;1.58;;;1.17;;
19830;SDS011;10076;52.008;4.708;2023-08-06T11:46:19;2.08;;;1.00;;
19830;SDS011;10076;52.008;4.708;2023-08-06T11:48:51;5.32;;;1.27;;
19830;SDS011;10076;52.008;4.708;2023-08-06T11:51:17;2.85;;;1.25;;
19830;SDS011;10076;52.008;4.708;2023-08-06T11:53:46;0.98;;;0.82;;
19830;SDS011;10076;52.008;4.708;2023-08-06T11:56:14;1.70;;;1.00;;
19830;SDS011;10076;52.008;4.708;2023-08-06T11:58:40;1.73;;;0.88;;
19830;SDS011;10076;52.008;4.708;2023-08-06T12:01:06;1.50;;;0.90;;
19830;SDS011;10076;52.008;4.708;2023-08-06T12:03:32;1.30;;;1.10;;
19830;SDS011;10076;52.008;4.708;2023-08-06T12:05:57;2.33;;;0.90;;
19830;SDS011;10076;52.008;4.708;2023-08-06T12:08:26;1.40;;;0.60;;
19830;SDS011;10076;52.008;4.708;2023-08-06T12:10:52;0.80;;;0.80;;
19830;SDS011;10076;52.008;4.708;2023-08-06T12:13:18;1.73;;;0.90;;
19830;SDS011;10076;52.008;4.708;2023-08-06T12:15:44;0.95;;;0.80;;
19830;SDS011;10076;52.008;4.708;2023-08-06T12:18:10;3.22;;;1.40;;
19830;SDS011;10076;52.008;4.708;2023-08-06T12:20:35;2.30;;;0.73;;
19830;SDS011;10076;52.008;4.708;2023-08-06T12:23:01;0.75;;;0.70;;
19830;SDS011;10076;52.008;4.708;2023-08-06T12:25:26;2.05;;;0.90;;
19830;SDS011;10076;52.008;4.708;2023-08-06T12:27:52;1.52;;;0.63;;
19830;SDS011;10076;52.008;4.708;2023-08-06T12:30:17;1.10;;;0.82;;
19830;SDS011;10076;52.008;4.708;2023-08-06T12:32:42;4.15;;;1.10;;
19830;SDS011;10076;52.008;4.708;2023-08-06T12:35:08;1.42;;;0.60;;
19830;SDS011;10076;52.008;4.708;2023-08-06T12:37:33;0.93;;;0.60;;
19830;SDS011;10076;52.008;4.708;2023-08-06T12:39:59;1.00;;;0.70;;
19830;SDS011;10076;52.008;4.708;2023-08-06T12:42:24;0.85;;;0.50;;
19830;SDS011;10076;52.008;4.708;2023-08-06T12:44:50;1.45;;;0.50;;
19830;SDS011;10076;52.008;4.708;2023-08-06T12:47:15;0.98;;;0.60;;
19830;SDS011;10076;52.008;4.708;2023-08-06T12:49:41;3.22;;;0.57;;
19830;SDS011;10076;52.008;4.708;2023-08-06T12:52:06;2.65;;;0.85;;
19830;SDS011;10076;52.008;4.708;2023-08-06T12:54:32;0.77;;;0.60;;
19830;SDS011;10076;52.008;4.708;2023-08-06T12:57:04;1.02;;;0.45;;
19830;SDS011;10076;52.008;4.708;2023-08-06T12:59:30;1.25;;;0.60;;
19830;SDS011;10076;52.008;4.708;2023-08-06T13:01:55;2.88;;;0.80;;
19830;SDS011;10076;52.008;4.708;2023-08-06T13:04:21;0.50;;;0.50;;
19830;SDS011;10076;52.008;4.708;2023-08-06T13:06:46;1.38;;;0.80;;
19830;SDS011;10076;52.008;4.708;2023-08-06T13:09:12;0.85;;;0.60;;
19830;SDS011;10076;52.008;4.708;2023-08-06T13:11:38;0.70;;;0.55;;
19830;SDS011;10076;52.008;4.708;2023-08-06T13:14:05;2.63;;;0.70;;
19830;SDS011;10076;52.008;4.708;2023-08-06T13:16:31;0.50;;;0.50;;
19830;SDS011;10076;52.008;4.708;2023-08-06T13:18:57;0.60;;;0.60;;
19830;SDS011;10076;52.008;4.708;2023-08-06T13:21:23;0.82;;;0.60;;
19830;SDS011;10076;52.008;4.708;2023-08-06T13:23:48;1.00;;;0.70;;
19830;SDS011;10076;52.008;4.708;2023-08-06T13:26:14;1.70;;;0.60;;
19830;SDS011;10076;52.008;4.708;2023-08-06T13:28:40;0.77;;;0.73;;
19830;SDS011;10076;52.008;4.708;2023-08-06T13:31:06;1.20;;;0.70;;
19830;SDS011;10076;52.008;4.708;2023-08-06T13:33:32;0.63;;;0.63;;
19830;SDS011;10076;52.008;4.708;2023-08-06T13:35:57;2.78;;;0.68;;
19830;SDS011;10076;52.008;4.708;2023-08-06T13:38:22;0.73;;;0.70;;
19830;SDS011;10076;52.008;4.708;2023-08-06T13:40:47;2.28;;;0.75;;
19830;SDS011;10076;52.008;4.708;2023-08-06T13:43:13;2.10;;;0.80;;
19830;SDS011;10076;52.008;4.708;2023-08-06T13:45:40;0.60;;;0.60;;
19830;SDS011;10076;52.008;4.708;2023-08-06T13:48:06;1.67;;;0.88;;
19830;SDS011;10076;52.008;4.708;2023-08-06T13:50:31;1.83;;;1.10;;
19830;SDS011;10076;52.008;4.708;2023-08-06T13:52:57;1.13;;;0.85;;
19830;SDS011;10076;52.008;4.708;2023-08-06T13:55:22;1.02;;;0.80;;
19830;SDS011;10076;52.008;4.708;2023-08-06T13:57:47;2.78;;;0.70;;
19830;SDS011;10076;52.008;4.708;2023-08-06T14:00:13;0.70;;;0.70;;
19830;SDS011;10076;52.008;4.708;2023-08-06T14:02:38;1.88;;;1.35;;
19830;SDS011;10076;52.008;4.708;2023-08-06T14:05:04;1.13;;;0.55;;
19830;SDS011;10076;52.008;4.708;2023-08-06T14:07:30;1.90;;;0.70;;
19830;SDS011;10076;52.008;4.708;2023-08-06T14:09:55;1.45;;;0.70;;
19830;SDS011;10076;52.008;4.708;2023-08-06T14:12:22;1.73;;;0.60;;
19830;SDS011;10076;52.008;4.708;2023-08-06T14:14:48;3.03;;;0.75;;
19830;SDS011;10076;52.008;4.708;2023-08-06T14:17:13;2.03;;;0.60;;
19830;SDS011;10076;52.008;4.708;2023-08-06T14:19:38;2.55;;;0.63;;
19830;SDS011;10076;52.008;4.708;2023-08-06T14:22:04;3.83;;;0.77;;
19830;SDS011;10076;52.008;4.708;2023-08-06T14:24:29;1.13;;;0.52;;
19830;SDS011;10076;52.008;4.708;2023-08-06T14:26:55;3.97;;;1.00;;
19830;SDS011;10076;52.008;4.708;2023-08-06T14:29:20;0.30;;;0.30;;
19830;SDS011;10076;52.008;4.708;2023-08-06T14:31:45;3.05;;;0.70;;
19830;SDS011;10076;52.008;4.708;2023-08-06T14:34:11;1.13;;;0.50;;
19830;SDS011;10076;52.008;4.708;2023-08-06T14:36:36;1.27;;;1.02;;
19830;SDS011;10076;52.008;4.708;2023-08-06T14:39:01;2.38;;;0.82;;
19830;SDS011;10076;52.008;4.708;2023-08-06T14:41:27;4.03;;;0.77;;
19830;SDS011;10076;52.008;4.708;2023-08-06T14:43:52;3.03;;;0.85;;
19830;SDS011;10076;52.008;4.708;2023-08-06T14:46:18;0.95;;;0.63;;
19830;SDS011;10076;52.008;4.708;2023-08-06T14:48:44;5.03;;;0.80;;
19830;SDS011;10076;52.008;4.708;2023-08-06T14:51:09;0.50;;;0.50;;
19830;SDS011;10076;52.008;4.708;2023-08-06T14:53:34;1.73;;;1.17;;
19830;SDS011;10076;52.008;4.708;2023-08-06T14:56:00;3.67;;;0.93;;
19830;SDS011;10076;52.008;4.708;2023-08-06T14:58:25;3.20;;;0.80;;
19830;SDS011;10076;52.008;4.708;2023-08-06T15:00:50;1.90;;;0.80;;